sensor_id;sensor_type;location;lat;lon;timestamp;P1;durP1;ratioP1;P2;durP2;ratioP2
60851;SDS011;48553;50.766;2.900;2023-06-19T00:00:15;12.30;;;7.15;;
60851;SDS011;48553;50.766;2.900;2023-06-19T00:03:16;12.20;;;6.72;;
60851;SDS011;48553;50.766;2.900;2023-06-19T00:06:16;11.38;;;6.68;;
60851;SDS011;48553;50.766;2.900;2023-06-19T00:09:16;11.38;;;6.93;;
60851;SDS011;48553;50.766;2.900;2023-06-19T00:12:17;11.70;;;6.95;;
60851;SDS011;48553;50.766;2.900;2023-06-19T00:15:18;10.70;;;5.80;;
60851;SDS011;48553;50.766;2.900;2023-06-19T00:18:18;9.95;;;5.63;;
60851;SDS011;48553;50.766;2.900;2023-06-19T00:21:19;12.27;;;5.53;;
60851;SDS011;48553;50.766;2.900;2023-06-19T00:24:20;9.73;;;5.47;;
60851;SDS011;48553;50.766;2.900;2023-06-19T00:27:20;8.90;;;5.18;;
60851;SDS011;48553;50.766;2.900;2023-06-19T00:30:21;11.25;;;5.10;;
60851;SDS011;48553;50.766;2.900;2023-06-19T00:33:22;9.23;;;4.85;;
60851;SDS011;48553;50.766;2.900;2023-06-19T00:36:22;9.13;;;4.53;;
60851;SDS011;48553;50.766;2.900;2023-06-19T00:39:25;7.07;;;4.25;;
60851;SDS011;48553;50.766;2.900;2023-06-19T00:42:27;7.72;;;4.15;;
60851;SDS011;48553;50.766;2.900;2023-06-19T00:45:28;7.03;;;4.15;;
60851;SDS011;48553;50.766;2.900;2023-06-19T00:48:29;10.02;;;4.43;;
60851;SDS011;48553;50.766;2.900;2023-06-19T00:51:31;8.20;;;4.40;;
60851;SDS011;48553;50.766;2.900;2023-06-19T00:54:32;8.57;;;4.47;;
60851;SDS011;48553;50.766;2.900;2023-06-19T00:57:33;7.20;;;4.40;;
60851;SDS011;48553;50.766;2.900;2023-06-19T01:00:33;8.02;;;4.78;;
60851;SDS011;48553;50.766;2.900;2023-06-19T01:03:34;9.23;;;4.60;;
60851;SDS011;48553;50.766;2.900;2023-06-19T01:06:40;9.60;;;5.38;;
60851;SDS011;48553;50.766;2.900;2023-06-19T01:09:48;10.38;;;5.85;;
60851;SDS011;48553;50.766;2.900;2023-06-19T01:12:58;11.82;;;6.55;;
60851;SDS011;48553;50.766;2.900;2023-06-19T01:16:02;12.10;;;7.72;;
60851;SDS011;48553;50.766;2.900;2023-06-19T01:19:04;11.45;;;7.80;;
60851;SDS011;48553;50.766;2.900;2023-06-19T01:22:10;13.32;;;8.43;;
60851;SDS011;48553;50.766;2.900;2023-06-19T01:25:10;15.40;;;8.50;;
60851;SDS011;48553;50.766;2.900;2023-06-19T01:28:14;14.23;;;8.57;;
60851;SDS011;48553;50.766;2.900;2023-06-19T01:31:21;14.90;;;8.85;;
60851;SDS011;48553;50.766;2.900;2023-06-19T01:34:30;14.60;;;8.70;;
60851;SDS011;48553;50.766;2.900;2023-06-19T01:37:31;12.30;;;8.32;;
60851;SDS011;48553;50.766;2.900;2023-06-19T01:40:33;13.13;;;7.88;;
60851;SDS011;48553;50.766;2.900;2023-06-19T01:43:35;12.95;;;8.40;;
60851;SDS011;48553;50.766;2.900;2023-06-19T01:46:37;13.32;;;8.30;;
60851;SDS011;48553;50.766;2.900;2023-06-19T01:49:38;14.80;;;9.25;;
60851;SDS011;48553;50.766;2.900;2023-06-19T01:52:38;13.50;;;9.15;;
60851;SDS011;48553;50.766;2.900;2023-06-19T01:55:39;15.43;;;9.98;;
60851;SDS011;48553;50.766;2.900;2023-06-19T01:58:40;16.85;;;10.93;;
60851;SDS011;48553;50.766;2.900;2023-06-19T02:01:40;19.88;;;11.65;;
60851;SDS011;48553;50.766;2.900;2023-06-19T02:04:40;16.95;;;10.27;;
60851;SDS011;48553;50.766;2.900;2023-06-19T02:07:41;15.55;;;10.60;;
60851;SDS011;48553;50.766;2.900;2023-06-19T02:10:42;17.88;;;11.05;;
60851;SDS011;48553;50.766;2.900;2023-06-19T02:13:42;16.35;;;10.35;;
60851;SDS011;48553;50.766;2.900;2023-06-19T02:16:42;15.80;;;10.20;;
60851;SDS011;48553;50.766;2.900;2023-06-19T02:19:43;18.45;;;10.95;;
60851;SDS011;48553;50.766;2.900;2023-06-19T02:22:44;18.65;;;11.40;;
60851;SDS011;48553;50.766;2.900;2023-06-19T02:25:44;16.20;;;11.88;;
60851;SDS011;48553;50.766;2.900;2023-06-19T02:28:44;21.58;;;12.55;;
60851;SDS011;48553;50.766;2.900;2023-06-19T02:31:45;21.00;;;13.35;;
60851;SDS011;48553;50.766;2.900;2023-06-19T02:34:45;23.15;;;13.68;;
60851;SDS011;48553;50.766;2.900;2023-06-19T02:37:46;20.42;;;14.10;;
60851;SDS011;48553;50.766;2.900;2023-06-19T02:40:47;22.60;;;13.90;;
60851;SDS011;48553;50.766;2.900;2023-06-19T02:43:47;23.40;;;14.55;;
60851;SDS011;48553;50.766;2.900;2023-06-19T02:46:48;24.25;;;14.48;;
60851;SDS011;48553;50.766;2.900;2023-06-19T02:49:49;24.17;;;14.88;;
60851;SDS011;48553;50.766;2.900;2023-06-19T02:52:49;22.70;;;15.18;;
60851;SDS011;48553;50.766;2.900;2023-06-19T02:55:50;23.33;;;15.30;;
60851;SDS011;48553;50.766;2.900;2023-06-19T02:58:50;23.00;;;15.00;;
60851;SDS011;48553;50.766;2.900;2023-06-19T03:01:51;24.23;;;15.45;;
60851;SDS011;48553;50.766;2.900;2023-06-19T03:04:52;23.67;;;15.10;;
60851;SDS011;48553;50.766;2.900;2023-06-19T03:07:52;27.55;;;15.52;;
60851;SDS011;48553;50.766;2.900;2023-06-19T03:10:52;22.52;;;14.65;;
60851;SDS011;48553;50.766;2.900;2023-06-19T03:13:53;24.85;;;14.80;;
60851;SDS011;48553;50.766;2.900;2023-06-19T03:16:54;25.00;;;15.02;;
60851;SDS011;48553;50.766;2.900;2023-06-19T03:19:54;23.50;;;14.77;;
60851;SDS011;48553;50.766;2.900;2023-06-19T03:22:55;22.02;;;14.52;;
60851;SDS011;48553;50.766;2.900;2023-06-19T03:25:55;22.75;;;14.77;;
60851;SDS011;48553;50.766;2.900;2023-06-19T03:28:57;26.65;;;14.75;;
60851;SDS011;48553;50.766;2.900;2023-06-19T03:31:58;24.45;;;15.38;;
60851;SDS011;48553;50.766;2.900;2023-06-19T03:34:59;23.23;;;14.55;;
60851;SDS011;48553;50.766;2.900;2023-06-19T03:37:59;24.23;;;15.18;;
60851;SDS011;48553;50.766;2.900;2023-06-19T03:41:00;25.08;;;14.70;;
60851;SDS011;48553;50.766;2.900;2023-06-19T03:44:00;25.52;;;15.32;;
60851;SDS011;48553;50.766;2.900;2023-06-19T03:47:01;22.17;;;14.57;;
60851;SDS011;48553;50.766;2.900;2023-06-19T03:50:01;23.65;;;14.80;;
60851;SDS011;48553;50.766;2.900;2023-06-19T03:53:02;26.17;;;15.63;;
60851;SDS011;48553;50.766;2.900;2023-06-19T03:56:03;25.92;;;15.55;;
60851;SDS011;48553;50.766;2.900;2023-06-19T03:59:03;23.65;;;14.80;;
60851;SDS011;48553;50.766;2.900;2023-06-19T04:02:04;26.40;;;15.95;;
60851;SDS011;48553;50.766;2.900;2023-06-19T04:05:08;24.88;;;15.25;;
60851;SDS011;48553;50.766;2.900;2023-06-19T04:08:08;24.23;;;15.45;;
60851;SDS011;48553;50.766;2.900;2023-06-19T04:11:08;25.00;;;15.32;;
60851;SDS011;48553;50.766;2.900;2023-06-19T04:14:09;25.17;;;15.38;;
60851;SDS011;48553;50.766;2.900;2023-06-19T04:17:09;26.08;;;14.98;;
60851;SDS011;48553;50.766;2.900;2023-06-19T04:20:10;26.15;;;16.35;;
60851;SDS011;48553;50.766;2.900;2023-06-19T04:23:11;27.40;;;15.48;;
60851;SDS011;48553;50.766;2.900;2023-06-19T04:26:11;24.35;;;15.48;;
60851;SDS011;48553;50.766;2.900;2023-06-19T04:29:12;25.42;;;15.70;;
60851;SDS011;48553;50.766;2.900;2023-06-19T04:35:17;24.98;;;14.90;;
60851;SDS011;48553;50.766;2.900;2023-06-19T04:38:18;26.27;;;15.48;;
60851;SDS011;48553;50.766;2.900;2023-06-19T04:41:18;23.83;;;15.55;;
60851;SDS011;48553;50.766;2.900;2023-06-19T04:44:19;25.52;;;15.85;;
60851;SDS011;48553;50.766;2.900;2023-06-19T04:47:21;26.88;;;15.35;;
60851;SDS011;48553;50.766;2.900;2023-06-19T04:50:23;26.55;;;15.95;;
60851;SDS011;48553;50.766;2.900;2023-06-19T04:53:24;25.63;;;15.77;;
60851;SDS011;48553;50.766;2.900;2023-06-19T04:56:25;26.73;;;16.08;;
60851;SDS011;48553;50.766;2.900;2023-06-19T04:59:26;24.85;;;15.35;;
60851;SDS011;48553;50.766;2.900;2023-06-19T05:02:26;23.98;;;15.02;;
60851;SDS011;48553;50.766;2.900;2023-06-19T05:05:30;25.38;;;15.88;;
60851;SDS011;48553;50.766;2.900;2023-06-19T05:08:30;24.45;;;15.70;;
60851;SDS011;48553;50.766;2.900;2023-06-19T05:11:31;24.20;;;15.35;;
60851;SDS011;48553;50.766;2.900;2023-06-19T05:14:31;24.75;;;15.52;;
60851;SDS011;48553;50.766;2.900;2023-06-19T05:17:32;26.67;;;16.40;;
60851;SDS011;48553;50.766;2.900;2023-06-19T05:20:32;24.88;;;15.30;;
60851;SDS011;48553;50.766;2.900;2023-06-19T05:23:33;26.45;;;15.32;;
60851;SDS011;48553;50.766;2.900;2023-06-19T05:26:33;27.52;;;15.80;;
60851;SDS011;48553;50.766;2.900;2023-06-19T05:29:34;25.45;;;15.27;;
60851;SDS011;48553;50.766;2.900;2023-06-19T05:32:35;26.15;;;15.80;;
60851;SDS011;48553;50.766;2.900;2023-06-19T05:35:35;25.70;;;15.95;;
60851;SDS011;48553;50.766;2.900;2023-06-19T05:38:35;26.73;;;15.70;;
60851;SDS011;48553;50.766;2.900;2023-06-19T05:41:36;26.52;;;16.30;;
60851;SDS011;48553;50.766;2.900;2023-06-19T05:44:36;25.63;;;16.13;;
60851;SDS011;48553;50.766;2.900;2023-06-19T05:47:37;26.73;;;16.02;;
60851;SDS011;48553;50.766;2.900;2023-06-19T05:50:37;26.63;;;16.40;;
60851;SDS011;48553;50.766;2.900;2023-06-19T05:53:38;26.38;;;15.30;;
60851;SDS011;48553;50.766;2.900;2023-06-19T05:56:39;25.00;;;16.00;;
60851;SDS011;48553;50.766;2.900;2023-06-19T05:59:39;25.77;;;15.75;;
60851;SDS011;48553;50.766;2.900;2023-06-19T06:02:41;26.25;;;15.70;;
60851;SDS011;48553;50.766;2.900;2023-06-19T06:05:42;25.48;;;15.63;;
60851;SDS011;48553;50.766;2.900;2023-06-19T06:08:43;26.58;;;16.38;;
60851;SDS011;48553;50.766;2.900;2023-06-19T06:11:43;26.77;;;15.32;;
60851;SDS011;48553;50.766;2.900;2023-06-19T06:14:44;26.92;;;15.15;;
60851;SDS011;48553;50.766;2.900;2023-06-19T06:17:44;24.60;;;15.05;;
60851;SDS011;48553;50.766;2.900;2023-06-19T06:20:45;24.75;;;15.35;;
60851;SDS011;48553;50.766;2.900;2023-06-19T06:23:45;24.70;;;15.05;;
60851;SDS011;48553;50.766;2.900;2023-06-19T06:26:47;25.92;;;15.73;;
60851;SDS011;48553;50.766;2.900;2023-06-19T06:29:48;25.48;;;15.60;;
60851;SDS011;48553;50.766;2.900;2023-06-19T06:32:48;26.63;;;16.50;;
60851;SDS011;48553;50.766;2.900;2023-06-19T06:35:49;23.67;;;15.20;;
60851;SDS011;48553;50.766;2.900;2023-06-19T06:38:49;24.67;;;15.75;;
60851;SDS011;48553;50.766;2.900;2023-06-19T06:41:50;27.13;;;15.32;;
60851;SDS011;48553;50.766;2.900;2023-06-19T06:44:51;26.90;;;15.68;;
60851;SDS011;48553;50.766;2.900;2023-06-19T06:47:51;23.55;;;15.48;;
60851;SDS011;48553;50.766;2.900;2023-06-19T06:50:52;23.85;;;15.25;;
60851;SDS011;48553;50.766;2.900;2023-06-19T06:53:59;25.67;;;15.73;;
60851;SDS011;48553;50.766;2.900;2023-06-19T06:56:59;26.02;;;15.52;;
60851;SDS011;48553;50.766;2.900;2023-06-19T07:00:00;27.15;;;15.32;;
60851;SDS011;48553;50.766;2.900;2023-06-19T07:03:01;23.38;;;15.10;;
60851;SDS011;48553;50.766;2.900;2023-06-19T07:06:01;25.92;;;15.77;;
60851;SDS011;48553;50.766;2.900;2023-06-19T07:09:02;24.65;;;14.57;;
60851;SDS011;48553;50.766;2.900;2023-06-19T07:12:03;22.67;;;14.55;;
60851;SDS011;48553;50.766;2.900;2023-06-19T07:15:05;24.33;;;14.25;;
60851;SDS011;48553;50.766;2.900;2023-06-19T07:18:05;22.02;;;13.60;;
60851;SDS011;48553;50.766;2.900;2023-06-19T07:21:07;22.20;;;12.73;;
60851;SDS011;48553;50.766;2.900;2023-06-19T07:24:11;19.88;;;12.55;;
60851;SDS011;48553;50.766;2.900;2023-06-19T07:27:11;19.85;;;12.07;;
60851;SDS011;48553;50.766;2.900;2023-06-19T07:30:12;18.13;;;11.88;;
60851;SDS011;48553;50.766;2.900;2023-06-19T07:33:13;18.48;;;11.75;;
60851;SDS011;48553;50.766;2.900;2023-06-19T07:36:13;17.13;;;11.23;;
60851;SDS011;48553;50.766;2.900;2023-06-19T07:39:16;17.30;;;10.63;;
60851;SDS011;48553;50.766;2.900;2023-06-19T07:42:17;15.00;;;10.27;;
60851;SDS011;48553;50.766;2.900;2023-06-19T07:45:18;18.60;;;10.52;;
60851;SDS011;48553;50.766;2.900;2023-06-19T07:48:18;15.05;;;10.10;;
60851;SDS011;48553;50.766;2.900;2023-06-19T07:51:20;15.52;;;9.93;;
60851;SDS011;48553;50.766;2.900;2023-06-19T07:54:20;15.68;;;9.32;;
60851;SDS011;48553;50.766;2.900;2023-06-19T07:57:21;16.23;;;9.18;;
60851;SDS011;48553;50.766;2.900;2023-06-19T08:00:23;16.70;;;10.00;;
60851;SDS011;48553;50.766;2.900;2023-06-19T08:03:24;15.60;;;9.65;;
60851;SDS011;48553;50.766;2.900;2023-06-19T08:06:25;14.27;;;8.77;;
60851;SDS011;48553;50.766;2.900;2023-06-19T08:09:25;13.85;;;8.82;;
60851;SDS011;48553;50.766;2.900;2023-06-19T08:12:26;13.10;;;8.40;;
60851;SDS011;48553;50.766;2.900;2023-06-19T08:15:26;14.05;;;8.90;;
60851;SDS011;48553;50.766;2.900;2023-06-19T08:18:27;13.98;;;7.93;;
60851;SDS011;48553;50.766;2.900;2023-06-19T08:21:27;14.82;;;8.52;;
60851;SDS011;48553;50.766;2.900;2023-06-19T08:24:27;12.73;;;8.48;;
60851;SDS011;48553;50.766;2.900;2023-06-19T08:27:28;12.77;;;7.85;;
60851;SDS011;48553;50.766;2.900;2023-06-19T08:30:29;11.73;;;7.70;;
60851;SDS011;48553;50.766;2.900;2023-06-19T08:33:30;13.48;;;7.47;;
60851;SDS011;48553;50.766;2.900;2023-06-19T08:36:30;11.52;;;7.18;;
60851;SDS011;48553;50.766;2.900;2023-06-19T08:39:31;12.88;;;7.68;;
60851;SDS011;48553;50.766;2.900;2023-06-19T08:42:31;12.85;;;7.22;;
60851;SDS011;48553;50.766;2.900;2023-06-19T08:45:32;11.05;;;7.35;;
60851;SDS011;48553;50.766;2.900;2023-06-19T08:48:34;14.20;;;7.82;;
60851;SDS011;48553;50.766;2.900;2023-06-19T08:51:36;13.05;;;7.97;;
60851;SDS011;48553;50.766;2.900;2023-06-19T08:54:37;14.27;;;7.78;;
60851;SDS011;48553;50.766;2.900;2023-06-19T08:57:43;14.02;;;8.45;;
60851;SDS011;48553;50.766;2.900;2023-06-19T09:00:47;14.85;;;7.82;;
60851;SDS011;48553;50.766;2.900;2023-06-19T09:03:47;11.10;;;7.40;;
60851;SDS011;48553;50.766;2.900;2023-06-19T09:09:54;11.73;;;7.03;;
60851;SDS011;48553;50.766;2.900;2023-06-19T09:12:59;10.88;;;7.32;;
60851;SDS011;48553;50.766;2.900;2023-06-19T09:16:07;11.07;;;7.22;;
60851;SDS011;48553;50.766;2.900;2023-06-19T09:19:08;10.88;;;6.82;;
60851;SDS011;48553;50.766;2.900;2023-06-19T09:22:09;11.38;;;7.07;;
60851;SDS011;48553;50.766;2.900;2023-06-19T09:25:09;11.23;;;6.75;;
60851;SDS011;48553;50.766;2.900;2023-06-19T09:28:16;11.90;;;7.63;;
60851;SDS011;48553;50.766;2.900;2023-06-19T09:31:19;11.32;;;7.22;;
60851;SDS011;48553;50.766;2.900;2023-06-19T09:34:20;11.50;;;7.05;;
60851;SDS011;48553;50.766;2.900;2023-06-19T09:37:27;9.27;;;6.55;;
60851;SDS011;48553;50.766;2.900;2023-06-19T09:40:30;9.55;;;6.80;;
60851;SDS011;48553;50.766;2.900;2023-06-19T09:43:39;11.88;;;6.78;;
60851;SDS011;48553;50.766;2.900;2023-06-19T09:46:42;13.25;;;6.68;;
60851;SDS011;48553;50.766;2.900;2023-06-19T09:50:04;13.35;;;7.10;;
60851;SDS011;48553;50.766;2.900;2023-06-19T09:53:06;11.85;;;6.68;;
60851;SDS011;48553;50.766;2.900;2023-06-19T09:56:07;10.52;;;7.30;;
60851;SDS011;48553;50.766;2.900;2023-06-19T09:59:08;11.55;;;7.50;;
60851;SDS011;48553;50.766;2.900;2023-06-19T10:02:10;10.25;;;7.47;;
60851;SDS011;48553;50.766;2.900;2023-06-19T10:05:10;11.63;;;7.45;;
60851;SDS011;48553;50.766;2.900;2023-06-19T10:08:25;12.60;;;7.50;;
60851;SDS011;48553;50.766;2.900;2023-06-19T10:11:28;10.77;;;6.80;;
60851;SDS011;48553;50.766;2.900;2023-06-19T10:14:46;10.82;;;7.15;;
60851;SDS011;48553;50.766;2.900;2023-06-19T10:17:51;9.30;;;6.53;;
60851;SDS011;48553;50.766;2.900;2023-06-19T10:20:53;9.15;;;6.43;;
60851;SDS011;48553;50.766;2.900;2023-06-19T10:23:55;11.10;;;7.07;;
60851;SDS011;48553;50.766;2.900;2023-06-19T10:27:00;9.88;;;6.10;;
60851;SDS011;48553;50.766;2.900;2023-06-19T10:30:02;9.63;;;6.10;;
60851;SDS011;48553;50.766;2.900;2023-06-19T10:33:04;10.63;;;5.75;;
60851;SDS011;48553;50.766;2.900;2023-06-19T10:36:14;9.63;;;7.05;;
60851;SDS011;48553;50.766;2.900;2023-06-19T10:39:16;8.88;;;6.00;;
60851;SDS011;48553;50.766;2.900;2023-06-19T10:42:16;9.13;;;5.75;;
60851;SDS011;48553;50.766;2.900;2023-06-19T10:45:17;11.18;;;6.43;;
60851;SDS011;48553;50.766;2.900;2023-06-19T10:48:18;9.43;;;6.32;;
60851;SDS011;48553;50.766;2.900;2023-06-19T10:51:19;9.43;;;5.53;;
60851;SDS011;48553;50.766;2.900;2023-06-19T10:54:20;7.15;;;5.00;;
60851;SDS011;48553;50.766;2.900;2023-06-19T10:57:27;8.68;;;5.03;;
60851;SDS011;48553;50.766;2.900;2023-06-19T11:00:32;8.68;;;5.60;;
60851;SDS011;48553;50.766;2.900;2023-06-19T11:03:33;8.30;;;4.90;;
60851;SDS011;48553;50.766;2.900;2023-06-19T11:06:35;9.00;;;5.28;;
60851;SDS011;48553;50.766;2.900;2023-06-19T11:09:36;7.90;;;4.93;;
60851;SDS011;48553;50.766;2.900;2023-06-19T11:12:37;7.97;;;5.20;;
60851;SDS011;48553;50.766;2.900;2023-06-19T11:15:37;7.88;;;5.30;;
60851;SDS011;48553;50.766;2.900;2023-06-19T11:18:38;11.65;;;6.10;;
60851;SDS011;48553;50.766;2.900;2023-06-19T11:21:38;10.77;;;5.82;;
60851;SDS011;48553;50.766;2.900;2023-06-19T11:24:45;7.90;;;5.95;;
60851;SDS011;48553;50.766;2.900;2023-06-19T11:27:46;8.55;;;5.20;;
60851;SDS011;48553;50.766;2.900;2023-06-19T11:31:01;9.65;;;5.60;;
60851;SDS011;48553;50.766;2.900;2023-06-19T11:34:03;10.75;;;5.90;;
60851;SDS011;48553;50.766;2.900;2023-06-19T11:37:16;8.75;;;6.53;;
60851;SDS011;48553;50.766;2.900;2023-06-19T11:40:18;10.35;;;5.32;;
60851;SDS011;48553;50.766;2.900;2023-06-19T11:46:28;10.13;;;5.75;;
60851;SDS011;48553;50.766;2.900;2023-06-19T11:49:35;10.80;;;6.03;;
60851;SDS011;48553;50.766;2.900;2023-06-19T11:52:36;9.13;;;5.78;;
60851;SDS011;48553;50.766;2.900;2023-06-19T11:55:36;8.95;;;5.53;;
60851;SDS011;48553;50.766;2.900;2023-06-19T11:58:37;7.05;;;5.30;;
60851;SDS011;48553;50.766;2.900;2023-06-19T12:01:37;8.52;;;5.65;;
60851;SDS011;48553;50.766;2.900;2023-06-19T12:04:38;9.60;;;6.65;;
60851;SDS011;48553;50.766;2.900;2023-06-19T12:07:39;10.32;;;5.78;;
60851;SDS011;48553;50.766;2.900;2023-06-19T12:10:39;8.48;;;5.68;;
60851;SDS011;48553;50.766;2.900;2023-06-19T12:13:40;9.35;;;5.55;;
60851;SDS011;48553;50.766;2.900;2023-06-19T12:16:41;9.45;;;5.50;;
60851;SDS011;48553;50.766;2.900;2023-06-19T12:19:41;8.98;;;5.72;;
60851;SDS011;48553;50.766;2.900;2023-06-19T12:22:42;7.10;;;4.70;;
60851;SDS011;48553;50.766;2.900;2023-06-19T12:25:42;8.20;;;4.88;;
60851;SDS011;48553;50.766;2.900;2023-06-19T12:28:43;8.52;;;5.43;;
60851;SDS011;48553;50.766;2.900;2023-06-19T12:31:44;7.28;;;4.63;;
60851;SDS011;48553;50.766;2.900;2023-06-19T12:34:44;7.25;;;4.72;;
60851;SDS011;48553;50.766;2.900;2023-06-19T12:37:46;6.70;;;4.55;;
60851;SDS011;48553;50.766;2.900;2023-06-19T12:40:47;7.15;;;5.03;;
60851;SDS011;48553;50.766;2.900;2023-06-19T12:43:47;8.63;;;5.65;;
60851;SDS011;48553;50.766;2.900;2023-06-19T12:46:48;8.00;;;5.20;;
60851;SDS011;48553;50.766;2.900;2023-06-19T12:49:48;7.43;;;5.25;;
60851;SDS011;48553;50.766;2.900;2023-06-19T12:52:49;9.25;;;5.40;;
60851;SDS011;48553;50.766;2.900;2023-06-19T12:55:50;11.20;;;5.97;;
60851;SDS011;48553;50.766;2.900;2023-06-19T12:58:51;8.57;;;5.50;;
60851;SDS011;48553;50.766;2.900;2023-06-19T13:01:52;8.07;;;5.38;;
60851;SDS011;48553;50.766;2.900;2023-06-19T13:04:52;8.30;;;5.57;;
60851;SDS011;48553;50.766;2.900;2023-06-19T13:07:52;8.95;;;6.30;;
60851;SDS011;48553;50.766;2.900;2023-06-19T13:10:53;8.43;;;5.25;;
60851;SDS011;48553;50.766;2.900;2023-06-19T13:13:53;8.95;;;5.80;;
60851;SDS011;48553;50.766;2.900;2023-06-19T13:16:54;8.68;;;5.72;;
60851;SDS011;48553;50.766;2.900;2023-06-19T13:19:54;10.75;;;6.13;;
60851;SDS011;48553;50.766;2.900;2023-06-19T13:22:54;9.32;;;5.82;;
60851;SDS011;48553;50.766;2.900;2023-06-19T13:25:55;8.93;;;5.72;;
60851;SDS011;48553;50.766;2.900;2023-06-19T13:28:55;9.15;;;5.40;;
60851;SDS011;48553;50.766;2.900;2023-06-19T13:31:58;8.93;;;6.20;;
60851;SDS011;48553;50.766;2.900;2023-06-19T13:34:59;9.85;;;6.20;;
60851;SDS011;48553;50.766;2.900;2023-06-19T13:37:59;9.35;;;5.65;;
60851;SDS011;48553;50.766;2.900;2023-06-19T13:41:00;9.77;;;5.75;;
60851;SDS011;48553;50.766;2.900;2023-06-19T13:44:00;9.68;;;5.57;;
60851;SDS011;48553;50.766;2.900;2023-06-19T13:47:01;8.85;;;5.80;;
60851;SDS011;48553;50.766;2.900;2023-06-19T13:50:01;9.90;;;6.20;;
60851;SDS011;48553;50.766;2.900;2023-06-19T13:53:01;7.22;;;5.45;;
60851;SDS011;48553;50.766;2.900;2023-06-19T13:56:02;9.88;;;7.10;;
60851;SDS011;48553;50.766;2.900;2023-06-19T13:59:02;9.55;;;6.20;;
60851;SDS011;48553;50.766;2.900;2023-06-19T14:02:03;13.73;;;9.27;;
60851;SDS011;48553;50.766;2.900;2023-06-19T14:05:07;11.82;;;9.05;;
60851;SDS011;48553;50.766;2.900;2023-06-19T14:08:08;8.75;;;5.45;;
60851;SDS011;48553;50.766;2.900;2023-06-19T14:11:09;7.53;;;5.78;;
60851;SDS011;48553;50.766;2.900;2023-06-19T14:14:09;9.18;;;5.70;;
60851;SDS011;48553;50.766;2.900;2023-06-19T14:17:10;8.00;;;5.00;;
60851;SDS011;48553;50.766;2.900;2023-06-19T14:20:10;7.68;;;5.40;;
60851;SDS011;48553;50.766;2.900;2023-06-19T14:23:11;8.65;;;4.88;;
60851;SDS011;48553;50.766;2.900;2023-06-19T14:26:11;7.97;;;6.00;;
60851;SDS011;48553;50.766;2.900;2023-06-19T14:29:12;7.57;;;4.82;;
60851;SDS011;48553;50.766;2.900;2023-06-19T14:32:15;8.43;;;5.10;;
60851;SDS011;48553;50.766;2.900;2023-06-19T14:35:15;7.63;;;5.78;;
60851;SDS011;48553;50.766;2.900;2023-06-19T14:38:16;9.15;;;6.60;;
60851;SDS011;48553;50.766;2.900;2023-06-19T14:41:17;9.15;;;5.50;;
60851;SDS011;48553;50.766;2.900;2023-06-19T14:44:17;11.57;;;9.40;;
60851;SDS011;48553;50.766;2.900;2023-06-19T14:47:18;9.18;;;5.95;;
60851;SDS011;48553;50.766;2.900;2023-06-19T14:50:18;12.32;;;9.27;;
60851;SDS011;48553;50.766;2.900;2023-06-19T14:53:19;10.65;;;7.43;;
60851;SDS011;48553;50.766;2.900;2023-06-19T14:56:19;6.47;;;4.55;;
60851;SDS011;48553;50.766;2.900;2023-06-19T14:59:19;9.80;;;7.55;;
60851;SDS011;48553;50.766;2.900;2023-06-19T15:02:20;10.63;;;9.25;;
60851;SDS011;48553;50.766;2.900;2023-06-19T15:05:20;8.73;;;5.03;;
60851;SDS011;48553;50.766;2.900;2023-06-19T15:08:21;7.75;;;5.18;;
60851;SDS011;48553;50.766;2.900;2023-06-19T15:11:22;7.82;;;5.38;;
60851;SDS011;48553;50.766;2.900;2023-06-19T15:14:22;6.18;;;4.20;;
60851;SDS011;48553;50.766;2.900;2023-06-19T15:17:22;29.75;;;25.67;;
60851;SDS011;48553;50.766;2.900;2023-06-19T15:20:23;8.10;;;5.13;;
60851;SDS011;48553;50.766;2.900;2023-06-19T15:23:23;7.80;;;5.07;;
60851;SDS011;48553;50.766;2.900;2023-06-19T15:26:24;10.38;;;6.35;;
60851;SDS011;48553;50.766;2.900;2023-06-19T15:29:25;10.13;;;6.80;;
60851;SDS011;48553;50.766;2.900;2023-06-19T15:32:26;8.60;;;6.00;;
60851;SDS011;48553;50.766;2.900;2023-06-19T15:35:26;7.47;;;5.28;;
60851;SDS011;48553;50.766;2.900;2023-06-19T15:38:27;6.32;;;4.20;;
60851;SDS011;48553;50.766;2.900;2023-06-19T15:41:27;7.13;;;4.90;;
60851;SDS011;48553;50.766;2.900;2023-06-19T15:44:28;22.48;;;18.50;;
60851;SDS011;48553;50.766;2.900;2023-06-19T15:47:28;8.00;;;5.47;;
60851;SDS011;48553;50.766;2.900;2023-06-19T15:50:28;7.32;;;4.70;;
60851;SDS011;48553;50.766;2.900;2023-06-19T15:53:29;17.85;;;13.35;;
60851;SDS011;48553;50.766;2.900;2023-06-19T15:56:29;10.57;;;6.72;;
60851;SDS011;48553;50.766;2.900;2023-06-19T15:59:30;64.47;;;51.72;;
60851;SDS011;48553;50.766;2.900;2023-06-19T16:02:31;13.75;;;12.23;;
60851;SDS011;48553;50.766;2.900;2023-06-19T16:05:31;10.95;;;8.13;;
60851;SDS011;48553;50.766;2.900;2023-06-19T16:08:32;5.70;;;4.07;;
60851;SDS011;48553;50.766;2.900;2023-06-19T16:11:32;11.65;;;9.77;;
60851;SDS011;48553;50.766;2.900;2023-06-19T16:14:33;9.95;;;7.38;;
60851;SDS011;48553;50.766;2.900;2023-06-19T16:17:33;7.68;;;5.13;;
60851;SDS011;48553;50.766;2.900;2023-06-19T16:20:34;7.63;;;5.28;;
60851;SDS011;48553;50.766;2.900;2023-06-19T16:23:34;20.55;;;16.00;;
60851;SDS011;48553;50.766;2.900;2023-06-19T16:26:36;13.88;;;11.27;;
60851;SDS011;48553;50.766;2.900;2023-06-19T16:29:36;9.40;;;7.05;;
60851;SDS011;48553;50.766;2.900;2023-06-19T16:32:36;5.93;;;3.50;;
60851;SDS011;48553;50.766;2.900;2023-06-19T16:35:37;6.03;;;3.72;;
60851;SDS011;48553;50.766;2.900;2023-06-19T16:38:37;7.18;;;4.43;;
60851;SDS011;48553;50.766;2.900;2023-06-19T16:41:38;5.40;;;3.75;;
60851;SDS011;48553;50.766;2.900;2023-06-19T16:44:38;6.13;;;4.10;;
60851;SDS011;48553;50.766;2.900;2023-06-19T16:47:39;5.22;;;3.63;;
60851;SDS011;48553;50.766;2.900;2023-06-19T16:50:39;13.45;;;9.98;;
60851;SDS011;48553;50.766;2.900;2023-06-19T16:53:40;6.43;;;4.00;;
60851;SDS011;48553;50.766;2.900;2023-06-19T16:56:40;5.78;;;3.65;;
60851;SDS011;48553;50.766;2.900;2023-06-19T16:59:41;7.50;;;5.28;;
60851;SDS011;48553;50.766;2.900;2023-06-19T17:02:41;8.48;;;5.18;;
60851;SDS011;48553;50.766;2.900;2023-06-19T17:05:41;5.32;;;3.42;;
60851;SDS011;48553;50.766;2.900;2023-06-19T17:08:42;5.40;;;3.47;;
60851;SDS011;48553;50.766;2.900;2023-06-19T17:11:42;4.93;;;3.40;;
60851;SDS011;48553;50.766;2.900;2023-06-19T17:14:43;6.55;;;3.75;;
60851;SDS011;48553;50.766;2.900;2023-06-19T17:17:43;10.60;;;7.95;;
60851;SDS011;48553;50.766;2.900;2023-06-19T17:20:44;4.75;;;3.17;;
60851;SDS011;48553;50.766;2.900;2023-06-19T17:23:44;5.93;;;3.47;;
60851;SDS011;48553;50.766;2.900;2023-06-19T17:26:45;6.60;;;3.70;;
60851;SDS011;48553;50.766;2.900;2023-06-19T17:29:46;6.13;;;3.58;;
60851;SDS011;48553;50.766;2.900;2023-06-19T17:32:47;6.32;;;4.30;;
60851;SDS011;48553;50.766;2.900;2023-06-19T17:35:48;5.70;;;3.50;;
60851;SDS011;48553;50.766;2.900;2023-06-19T17:38:48;5.65;;;3.30;;
60851;SDS011;48553;50.766;2.900;2023-06-19T17:41:49;4.50;;;3.05;;
60851;SDS011;48553;50.766;2.900;2023-06-19T17:44:49;5.38;;;3.45;;
60851;SDS011;48553;50.766;2.900;2023-06-19T17:47:50;6.10;;;3.63;;
60851;SDS011;48553;50.766;2.900;2023-06-19T17:50:50;5.57;;;3.55;;
60851;SDS011;48553;50.766;2.900;2023-06-19T17:53:51;5.50;;;3.13;;
60851;SDS011;48553;50.766;2.900;2023-06-19T17:56:51;5.85;;;3.70;;
60851;SDS011;48553;50.766;2.900;2023-06-19T17:59:53;5.53;;;3.30;;
60851;SDS011;48553;50.766;2.900;2023-06-19T18:02:54;5.63;;;3.53;;
60851;SDS011;48553;50.766;2.900;2023-06-19T18:05:55;4.28;;;3.00;;